Time;durP1;ratioP1;P1;durP2;ratioP2;P2;SDS_P1;SDS_P2;PMS_P1;PMS_P2;Temp;Humidity;BMP_temperature;BMP_pressure;BME280_temperature;BME280_humidity;BME280_pressure;Samples;Min_cycle;Max_cycle;Signal;HPM_P1;HPM_P2
2022/01/11 00:00:32;;;;;;;24.75;8.13;;;-2.80;99.90;;;;;;4954682;29;20029;-77
2022/01/11 00:02:57;;;;;;;17.08;7.22;;;-2.60;99.90;;;;;;4937495;29;20027;-77
2022/01/11 00:05:37;;;;;;;19.55;8.73;;;-2.90;99.90;;;;;;4937184;29;20041;-76
2022/01/11 00:08:04;;;;;;;16.80;7.18;;;-3.10;99.90;;;;;;4955280;29;20565;-76
2022/01/11 00:10:34;;;;;;;16.63;7.05;;;-3.20;99.90;;;;;;4954887;29;20582;-77
2022/01/11 00:13:01;;;;;;;22.60;8.82;;;-2.90;99.90;;;;;;4954304;29;20077;-77
2022/01/11 00:15:28;;;;;;;21.10;7.72;;;-2.90;99.90;;;;;;4953913;28;20141;-78
2022/01/11 00:17:57;;;;;;;17.33;7.15;;;-2.90;99.90;;;;;;4953382;29;20066;-77
2022/01/11 00:20:24;;;;;;;17.95;7.32;;;-2.80;99.90;;;;;;4954636;29;20656;-77
2022/01/11 00:25:26;;;;;;;19.67;8.20;;;-0.90;99.90;;;;;;4954108;29;20066;-77
2022/01/11 00:27:52;;;;;;;19.60;8.05;;;-2.80;99.90;;;;;;4936134;29;20023;-76
2022/01/11 00:30:18;;;;;;;25.23;9.73;;;-1.60;99.90;;;;;;4936112;29;20038;-77
2022/01/11 00:32:49;;;;;;;22.08;9.07;;;-2.40;99.90;;;;;;4936765;29;20490;-77
2022/01/11 00:35:17;;;;;;;22.60;9.57;;;-0.80;99.90;;;;;;4954359;29;20131;-77
2022/01/11 00:37:43;;;;;;;26.38;10.45;;;-2.60;99.90;;;;;;4937309;29;20027;-76
2022/01/11 00:40:10;;;;;;;27.02;10.68;;;-1.60;99.90;;;;;;4936429;29;20035;-77
2022/01/11 00:42:37;;;;;;;28.90;9.68;;;-2.10;99.90;;;;;;4953316;29;20380;-76
2022/01/11 00:45:05;;;;;;;30.88;10.23;;;-1.20;99.90;;;;;;4953390;29;20039;-76
2022/01/11 00:47:31;;;;;;;29.92;10.30;;;-1.90;99.90;;;;;;4952950;29;20034;-76
2022/01/11 00:49:56;;;;;;;26.35;8.05;;;-1.80;99.90;;;;;;4954153;29;20027;-76
2022/01/11 00:52:22;;;;;;;31.35;11.10;;;-1.70;99.90;;;;;;4953735;29;20035;-77
2022/01/11 00:54:49;;;;;;;34.90;11.98;;;;;;;;;;4954077;29;20042;-77
2022/01/11 00:57:14;;;;;;;26.25;9.00;;;-1.70;99.90;;;;;;4953815;29;20039;-76
2022/01/11 00:59:40;;;;;;;28.38;9.23;;;-1.70;99.90;;;;;;4953442;29;20027;-76
2022/01/11 01:02:06;;;;;;;21.63;8.30;;;-1.70;99.90;;;;;;4952808;29;20046;-75
2022/01/11 01:04:33;;;;;;;24.38;10.25;;;;;;;;;;4953368;29;20033;-76
2022/01/11 01:06:59;;;;;;;25.02;8.88;;;-1.80;99.90;;;;;;4953165;29;20031;-76
2022/01/11 01:09:29;;;;;;;24.48;9.63;;;-1.70;99.90;;;;;;4953036;29;20039;-76
2022/01/11 01:11:55;;;;;;;28.38;9.50;;;-1.30;99.90;;;;;;4936060;29;20031;-76
2022/01/11 01:14:21;;;;;;;26.10;8.98;;;-1.50;99.90;;;;;;4952841;29;20046;-76
2022/01/11 01:16:47;;;;;;;21.63;9.38;;;-2.30;99.90;;;;;;4953191;29;20501;-76
2022/01/11 01:19:13;;;;;;;21.48;7.22;;;-2.10;99.90;;;;;;4953007;29;20566;-77
2022/01/11 01:21:39;;;;;;;19.58;9.20;;;-2.20;99.90;;;;;;4952726;29;20027;-76
2022/01/11 01:24:07;;;;;;;22.38;9.13;;;-2.10;99.90;;;;;;4952525;29;20417;-76
2022/01/11 01:26:33;;;;;;;29.42;9.93;;;-2.30;99.90;;;;;;4951951;29;20028;-76
2022/01/11 01:29:00;;;;;;;33.80;10.23;;;-1.70;99.90;;;;;;4952027;28;20027;-77
2022/01/11 01:31:29;;;;;;;25.67;11.30;;;-2.00;99.90;;;;;;4952333;29;20031;-77
2022/01/11 01:33:55;;;;;;;19.90;7.85;;;-2.30;99.90;;;;;;4953335;29;20027;-77
2022/01/11 01:36:22;;;;;;;25.17;8.52;;;-1.50;99.90;;;;;;4953221;29;20201;-76
2022/01/11 01:38:48;;;;;;;25.88;10.30;;;-1.70;99.90;;;;;;4952774;29;20023;-76
2022/01/11 01:41:19;;;;;;;23.85;9.00;;;-0.50;99.90;;;;;;4953458;29;20028;-79
2022/01/11 01:43:48;;;;;;;23.85;9.48;;;-2.10;99.90;;;;;;4953280;29;20035;-76
2022/01/11 01:46:15;;;;;;;23.77;8.90;;;-2.30;99.90;;;;;;4953225;29;20487;-76
2022/01/11 01:48:41;;;;;;;21.90;7.85;;;-2.00;99.90;;;;;;4935956;29;20178;-78
2022/01/11 01:51:09;;;;;;;42.47;10.10;;;-1.10;99.90;;;;;;4953033;29;20038;-75
2022/01/11 01:53:40;;;;;;;23.75;8.68;;;-1.70;99.90;;;;;;4953425;29;20067;-77
2022/01/11 01:56:06;;;;;;;27.65;10.48;;;-1.10;99.90;;;;;;4953248;29;20020;-76
2022/01/11 01:58:32;;;;;;;18.40;7.53;;;-1.90;99.90;;;;;;4952532;29;20054;-76
2022/01/11 02:01:04;;;;;;;25.25;9.30;;;-1.80;99.90;;;;;;4935103;29;20479;-76
2022/01/11 02:03:36;;;;;;;31.40;9.25;;;-2.00;99.90;;;;;;4952023;29;20035;-76
2022/01/11 02:06:03;;;;;;;25.67;8.90;;;-1.70;99.90;;;;;;4952260;29;20042;-76
2022/01/11 02:08:29;;;;;;;21.02;8.73;;;-1.50;99.90;;;;;;4952233;29;20106;-77
2022/01/11 02:10:54;;;;;;;26.40;8.45;;;-1.50;99.90;;;;;;4953175;29;20062;-76
2022/01/11 02:13:20;;;;;;;37.35;9.27;;;-1.70;99.90;;;;;;4953096;29;20027;-77
2022/01/11 02:15:46;;;;;;;26.48;10.05;;;-1.70;99.90;;;;;;4952235;29;20027;-77
2022/01/11 02:18:15;;;;;;;41.92;9.55;;;-1.30;99.90;;;;;;4951963;29;20074;-78
2022/01/11 02:20:45;;;;;;;26.35;9.55;;;-1.30;99.90;;;;;;4952258;29;20501;-77
2022/01/11 02:23:12;;;;;;;23.33;9.85;;;-1.70;99.90;;;;;;4935185;29;20054;-77
2022/01/11 02:25:39;;;;;;;32.33;8.13;;;-1.50;99.90;;;;;;4951799;29;20050;-77
2022/01/11 02:28:06;;;;;;;33.97;8.05;;;-1.60;99.90;;;;;;4951972;29;20169;-77
2022/01/11 02:30:34;;;;;;;26.10;8.73;;;-1.50;99.90;;;;;;4951561;29;20479;-76
2022/01/11 02:33:02;;;;;;;63.97;10.43;;;-1.30;99.90;;;;;;4952345;29;20282;-77
2022/01/11 02:35:28;;;;;;;32.00;10.20;;;-1.70;99.90;;;;;;4952544;29;20527;-76
2022/01/11 02:37:54;;;;;;;66.93;8.10;;;-1.80;99.90;;;;;;4935102;29;20546;-77
2022/01/11 02:40:23;;;;;;;46.17;8.27;;;-0.80;99.90;;;;;;4954418;28;20102;-76
2022/01/11 02:42:48;;;;;;;50.10;9.32;;;-1.80;99.90;;;;;;4956595;29;20027;-76
2022/01/11 02:45:17;;;;;;;37.72;10.55;;;-1.60;99.90;;;;;;4956209;29;20387;-77
2022/01/11 02:47:45;;;;;;;23.65;7.63;;;-2.10;99.90;;;;;;4955929;29;20391;-76
2022/01/11 02:50:12;;;;;;;28.63;8.88;;;-1.60;99.90;;;;;;4938686;29;20503;-76
2022/01/11 02:52:38;;;;;;;41.03;7.95;;;-2.10;99.90;;;;;;4955555;29;20115;-76
2022/01/11 02:55:09;;;;;;;45.00;8.85;;;-2.10;99.90;;;;;;4956719;29;20102;-77
2022/01/11 02:57:35;;;;;;;36.95;8.13;;;-2.10;99.90;;;;;;4954302;29;20054;-77
2022/01/11 03:00:01;;;;;;;46.75;7.57;;;-1.50;99.90;;;;;;4937995;29;20542;-77
2022/01/11 03:02:27;;;;;;;31.50;8.95;;;-2.40;99.90;;;;;;4954791;29;20055;-76
2022/01/11 03:04:53;;;;;;;26.52;9.35;;;-1.50;99.90;;;;;;4955838;29;20081;-78
2022/01/11 03:07:20;;;;;;;35.13;7.72;;;-2.30;99.90;;;;;;4956013;29;20054;-77
2022/01/11 03:10:02;;;;;;;43.65;8.13;;;-1.70;99.90;;;;;;4938760;29;20038;-76
2022/01/11 03:12:27;;;;;;;66.07;8.20;;;-2.00;99.90;;;;;;4955939;29;20019;-77
2022/01/11 03:14:53;;;;;;;26.88;8.48;;;-1.70;99.90;;;;;;4937356;29;20050;-76
2022/01/11 03:17:19;;;;;;;54.78;9.48;;;-1.80;99.90;;;;;;4937001;29;20360;-77
2022/01/11 03:19:46;;;;;;;69.25;9.52;;;-1.60;99.90;;;;;;4955269;29;20055;-75
2022/01/11 03:22:12;;;;;;;70.47;9.70;;;-2.00;99.90;;;;;;4956168;29;20043;-77
2022/01/11 03:24:38;;;;;;;65.38;9.35;;;-2.00;99.90;;;;;;4955949;29;20412;-77
2022/01/11 03:27:06;;;;;;;57.08;10.65;;;-2.30;99.90;;;;;;4954809;29;20357;-76
2022/01/11 03:29:37;;;;;;;43.70;9.40;;;-2.30;99.90;;;;;;4954789;29;20024;-77
2022/01/11 03:32:04;;;;;;;63.13;9.05;;;-2.30;99.90;;;;;;4954597;29;20497;-76
2022/01/11 03:34:30;;;;;;;30.20;8.00;;;-2.40;99.90;;;;;;4954141;29;20497;-76
2022/01/11 03:36:57;;;;;;;50.70;8.57;;;-2.30;99.90;;;;;;4952754;29;20024;-76
2022/01/11 03:39:24;;;;;;;72.63;9.57;;;-1.90;99.90;;;;;;4954579;29;20026;-77
2022/01/11 03:41:50;;;;;;;73.93;9.27;;;-2.10;99.90;;;;;;4953863;29;20034;-76
2022/01/11 03:44:16;;;;;;;35.28;6.88;;;-1.50;99.90;;;;;;4954023;29;20130;-76
2022/01/11 03:46:41;;;;;;;39.10;7.07;;;-2.10;99.90;;;;;;4953833;29;20031;-76
2022/01/11 03:49:07;;;;;;;35.28;6.85;;;-1.60;99.90;;;;;;4936592;29;20054;-77
2022/01/11 03:51:36;;;;;;;43.03;9.27;;;-2.40;99.90;;;;;;4954036;28;20494;-76
2022/01/11 03:54:09;;;;;;;53.17;9.15;;;-2.00;99.90;;;;;;4953885;29;20438;-76
2022/01/11 03:56:35;;;;;;;44.58;8.65;;;-2.60;99.90;;;;;;4953817;29;20030;-76
2022/01/11 03:59:06;;;;;;;22.05;7.45;;;-2.40;99.90;;;;;;4954954;29;20379;-78
2022/01/11 04:01:35;;;;;;;78.85;6.90;;;-2.40;99.90;;;;;;4954705;29;20035;-77
2022/01/11 04:04:01;;;;;;;;;;;-2.50;99.90;;;;;;4954179;29;20042;-76
2022/01/11 04:06:27;;;;;;;23.48;6.00;;;-2.40;99.90;;;;;;4953900;29;19906;-76
2022/01/11 04:08:53;;;;;;;62.47;8.52;;;-1.30;99.90;;;;;;4953745;29;20118;-76
2022/01/11 04:11:19;;;;;;;67.38;9.68;;;-1.00;99.90;;;;;;4953690;29;20028;-77
2022/01/11 04:13:46;;;;;;;60.88;10.98;;;-1.10;99.90;;;;;;4953487;29;20038;-76
2022/01/11 04:16:12;;;;;;;52.58;7.25;;;-2.40;99.90;;;;;;4953515;29;20046;-76
2022/01/11 04:18:38;;;;;;;41.83;7.78;;;-1.50;99.90;;;;;;4953319;29;20077;-79
2022/01/11 04:21:04;;;;;;;43.33;6.75;;;-1.30;99.90;;;;;;4953823;29;20256;-76
2022/01/11 04:23:31;;;;;;;54.97;9.23;;;-2.00;99.90;;;;;;4953261;29;20043;-76
2022/01/11 04:25:57;;;;;;;66.88;9.65;;;-1.40;99.90;;;;;;4953303;29;20487;-76
2022/01/11 04:28:25;;;;;;;57.88;10.07;;;-2.20;99.90;;;;;;4953556;29;20042;-77
2022/01/11 04:30:52;;;;;;;78.10;11.18;;;-1.30;99.90;;;;;;4952926;29;20214;-76
2022/01/11 04:33:19;;;;;;;21.33;5.68;;;-2.20;99.90;;;;;;4936121;29;20019;-77
2022/01/11 04:35:48;;;;;;;54.10;9.48;;;-2.40;99.90;;;;;;4953239;29;20337;-77
2022/01/11 04:38:18;;;;;;;35.40;8.10;;;-1.50;99.90;;;;;;4953427;29;20094;-76
2022/01/11 04:40:44;;;;;;;36.17;7.63;;;-2.20;99.90;;;;;;4953028;29;20106;-77
2022/01/11 04:43:10;;;;;;;49.85;9.85;;;-1.40;99.90;;;;;;4953122;29;20376;-77
2022/01/11 04:45:36;;;;;;;36.65;8.30;;;-1.90;99.90;;;;;;4953130;29;20024;-77
2022/01/11 04:48:01;;;;;;;50.95;11.15;;;-1.50;99.90;;;;;;4953920;29;20078;-77
2022/01/11 04:50:28;;;;;;;54.97;9.10;;;-2.50;99.90;;;;;;4954114;29;20062;-77
2022/01/11 04:52:54;;;;;;;45.90;10.93;;;-1.80;99.90;;;;;;4936360;29;20050;-77
2022/01/11 04:55:20;;;;;;;65.18;10.77;;;-1.50;99.90;;;;;;4953229;29;20074;-77
2022/01/11 04:57:47;;;;;;;36.80;9.90;;;-2.60;99.90;;;;;;4935640;29;20035;-76
2022/01/11 05:00:15;;;;;;;45.70;8.57;;;-1.60;99.90;;;;;;4952572;29;20023;-76
2022/01/11 05:02:41;;;;;;;47.35;10.95;;;-2.60;99.90;;;;;;4934872;29;20035;-77
2022/01/11 05:05:07;;;;;;;54.97;8.73;;;-3.20;99.90;;;;;;4952537;29;20035;-76
2022/01/11 05:07:33;;;;;;;35.33;9.05;;;-2.60;99.90;;;;;;4952591;29;20038;-77
2022/01/11 05:09:59;;;;;;;36.70;6.47;;;-1.30;99.90;;;;;;4935152;29;20027;-76
2022/01/11 05:12:24;;;;;;;17.92;4.28;;;-1.50;99.90;;;;;;4952535;29;20518;-77
2022/01/11 05:14:50;;;;;;;49.60;7.65;;;-2.10;99.90;;;;;;4952870;29;20031;-76
2022/01/11 05:17:16;;;;;;;49.42;8.00;;;-1.70;99.90;;;;;;4952367;29;20037;-76
2022/01/11 05:19:42;;;;;;;54.67;7.60;;;-0.50;99.90;;;;;;4952342;29;20426;-77
2022/01/11 05:22:08;;;;;;;29.40;7.97;;;-1.50;99.90;;;;;;4952102;29;20039;-76
2022/01/11 05:24:33;;;;;;;32.58;9.18;;;-1.50;99.90;;;;;;4952527;29;20039;-76
2022/01/11 05:26:59;;;;;;;56.78;8.98;;;-2.30;99.90;;;;;;4953004;29;20027;-76
2022/01/11 05:29:25;;;;;;;51.67;9.63;;;-1.60;99.90;;;;;;4935716;29;20110;-76
2022/01/11 05:31:51;;;;;;;36.20;9.15;;;-2.40;99.90;;;;;;4936078;29;20027;-76
2022/01/11 05:34:16;;;;;;;28.98;8.68;;;-1.90;99.90;;;;;;4954784;29;20019;-76
2022/01/11 05:36:42;;;;;;;29.85;9.85;;;-1.70;99.90;;;;;;4952477;29;20031;-76
2022/01/11 05:39:08;;;;;;;31.40;8.23;;;-1.90;99.90;;;;;;4934293;29;20043;-76
2022/01/11 05:41:34;;;;;;;28.92;7.85;;;-2.00;99.90;;;;;;4951738;29;20391;-76
2022/01/11 05:43:59;;;;;;;34.40;9.73;;;-1.90;99.90;;;;;;4951895;29;20275;-77
2022/01/11 05:46:26;;;;;;;30.23;6.80;;;-2.10;99.90;;;;;;4934682;29;20534;-76
2022/01/11 05:48:52;;;;;;;48.10;8.55;;;-2.40;99.90;;;;;;4934556;29;20028;-77
2022/01/11 05:51:18;;;;;;;29.92;9.07;;;-2.20;99.90;;;;;;4952247;29;20037;-77
2022/01/11 05:53:45;;;;;;;29.48;9.00;;;-1.60;99.90;;;;;;4951777;29;20503;-77
2022/01/11 05:56:10;;;;;;;39.08;9.68;;;-2.00;99.90;;;;;;4952303;29;20467;-76
2022/01/11 05:58:36;;;;;;;27.10;9.43;;;-2.30;99.90;;;;;;4951968;29;20027;-76
2022/01/11 06:01:02;;;;;;;34.80;11.13;;;-2.20;99.90;;;;;;4951361;29;20038;-76
2022/01/11 06:03:28;;;;;;;35.45;8.65;;;-1.30;99.90;;;;;;4934249;29;20050;-76
2022/01/11 06:05:54;;;;;;;28.73;8.80;;;-1.70;99.90;;;;;;4951847;29;20023;-77
2022/01/11 06:08:20;;;;;;;28.15;7.47;;;-1.60;99.90;;;;;;4951868;29;20354;-76
2022/01/11 06:10:46;;;;;;;45.25;9.23;;;-0.80;99.90;;;;;;4934781;29;20031;-77
2022/01/11 06:13:12;;;;;;;22.08;7.93;;;-2.20;99.90;;;;;;4951888;28;20027;-77
2022/01/11 06:15:38;;;;;;;17.67;6.82;;;-2.20;99.90;;;;;;4935349;28;20035;-77
2022/01/11 06:18:05;;;;;;;24.42;8.32;;;-2.00;99.90;;;;;;4967127;28;20068;-78
2022/01/11 06:20:31;;;;;;;36.03;9.23;;;-1.50;99.90;;;;;;4953899;28;20062;-76
2022/01/11 06:22:57;;;;;;;39.72;9.57;;;-1.20;99.90;;;;;;4949161;28;20423;-77
2022/01/11 06:25:23;;;;;;;42.58;9.70;;;-2.30;99.90;;;;;;4971125;28;20044;-77
2022/01/11 06:27:49;;;;;;;36.70;9.40;;;-2.30;99.90;;;;;;4971502;28;20058;-76
2022/01/11 06:30:16;;;;;;;29.05;8.57;;;-2.20;99.90;;;;;;4974693;28;20058;-77
2022/01/11 06:32:43;;;;;;;45.80;7.97;;;-2.10;99.90;;;;;;4973005;28;20136;-77
2022/01/11 06:35:10;;;;;;;28.80;9.02;;;-2.10;99.90;;;;;;4943254;29;20058;-77
2022/01/11 06:37:36;;;;;;;42.83;8.63;;;-2.10;99.90;;;;;;4961006;28;20031;-76
2022/01/11 06:40:04;;;;;;;35.38;7.60;;;-2.00;99.90;;;;;;4944338;28;20535;-74
2022/01/11 06:42:31;;;;;;;30.75;8.43;;;-1.90;99.90;;;;;;4944033;28;20023;-77
2022/01/11 06:44:57;;;;;;;27.02;7.72;;;-2.00;99.90;;;;;;4947617;28;20266;-75
2022/01/11 06:47:23;;;;;;;31.75;7.55;;;-1.60;99.90;;;;;;4981401;28;20215;-75
2022/01/11 06:49:48;;;;;;;32.28;8.20;;;-2.00;99.90;;;;;;4972204;28;20023;-76
2022/01/11 06:52:14;;;;;;;36.83;7.00;;;-1.70;99.90;;;;;;4951896;28;20101;-76
2022/01/11 06:54:41;;;;;;;23.35;6.97;;;-0.90;99.90;;;;;;4969393;28;20031;-76
2022/01/11 06:57:07;;;;;;;54.30;15.80;;;-1.90;99.90;;;;;;4969975;28;20106;-75
2022/01/11 06:59:35;;;;;;;36.05;13.15;;;-1.90;99.90;;;;;;4953468;28;20093;-75
2022/01/11 07:02:01;;;;;;;43.30;11.02;;;-1.00;99.90;;;;;;4953841;28;20031;-75
2022/01/11 07:04:27;;;;;;;28.60;8.63;;;-2.00;99.90;;;;;;4954088;28;20091;-75
2022/01/11 07:06:53;;;;;;;30.75;8.68;;;-1.90;99.90;;;;;;4971383;28;20050;-76
2022/01/11 07:09:19;;;;;;;27.15;6.78;;;-1.80;99.90;;;;;;4966449;28;20110;-76
2022/01/11 07:11:44;;;;;;;30.73;9.23;;;-1.30;99.90;;;;;;4952240;29;20063;-75
2022/01/11 07:14:11;;;;;;;34.80;12.65;;;-1.60;99.90;;;;;;4956770;28;20031;-76
2022/01/11 07:16:38;;;;;;;24.02;9.38;;;-1.60;99.90;;;;;;4946389;28;20027;-76
2022/01/11 07:19:03;;;;;;;30.48;10.02;;;-1.90;99.90;;;;;;4957451;28;20043;-76
2022/01/11 07:21:29;;;;;;;33.15;12.25;;;-1.50;99.90;;;;;;4962531;28;20050;-75
2022/01/11 07:23:55;;;;;;;32.65;10.82;;;-1.50;99.90;;;;;;4971456;28;20046;-76
2022/01/11 07:26:20;;;;;;;43.10;10.75;;;-1.70;99.90;;;;;;4970315;28;20026;-76
2022/01/11 07:28:46;;;;;;;50.20;11.00;;;-1.90;99.90;;;;;;4970899;28;20383;-82
2022/01/11 07:31:12;;;;;;;30.00;8.15;;;-1.90;99.90;;;;;;4971559;28;20487;-76
2022/01/11 07:33:38;;;;;;;42.80;13.27;;;-1.40;99.90;;;;;;4971197;28;20031;-76
2022/01/11 07:36:04;;;;;;;38.90;12.57;;;-1.70;99.90;;;;;;4970979;28;20187;-75
2022/01/11 07:38:30;;;;;;;35.83;8.15;;;-1.90;99.90;;;;;;4970952;28;20037;-75
2022/01/11 07:40:55;;;;;;;23.08;6.80;;;-1.80;99.90;;;;;;4953138;28;20031;-75
2022/01/11 07:43:21;;;;;;;40.65;11.50;;;-1.40;99.90;;;;;;4970571;28;20045;-75
2022/01/11 07:45:47;;;;;;;74.75;10.80;;;-1.20;99.90;;;;;;4953050;28;20074;-75
2022/01/11 07:48:13;;;;;;;38.25;8.25;;;-1.80;99.90;;;;;;4970049;28;20026;-73
2022/01/11 07:50:39;;;;;;;27.55;7.35;;;-1.50;99.90;;;;;;4970292;28;20030;-75
2022/01/11 07:53:05;;;;;;;40.03;12.00;;;-1.70;99.90;;;;;;4971453;28;20546;-76
2022/01/11 07:55:32;;;;;;;40.88;10.13;;;-1.50;99.90;;;;;;4970153;28;20427;-75
2022/01/11 07:57:58;;;;;;;46.72;10.35;;;-1.60;99.90;;;;;;4970479;28;20023;-74
2022/01/11 08:00:24;;;;;;;51.55;8.00;;;-1.30;99.90;;;;;;4970065;28;20037;-75
2022/01/11 08:02:49;;;;;;;33.90;8.38;;;-1.70;99.90;;;;;;4970148;28;20022;-73
2022/01/11 08:05:16;;;;;;;33.63;7.07;;;-0.20;99.90;;;;;;4970119;28;20064;-74
2022/01/11 08:07:42;;;;;;;34.00;8.50;;;-1.40;99.90;;;;;;4952600;28;20394;-74
2022/01/11 08:10:11;;;;;;;86.43;11.90;;;-0.80;99.90;;;;;;4960920;28;20086;-74
2022/01/11 08:12:37;;;;;;;77.28;11.77;;;-1.90;99.90;;;;;;4950574;29;20494;-74
2022/01/11 08:15:04;;;;;;;82.28;10.88;;;-1.80;99.90;;;;;;4951056;29;20107;-75
2022/01/11 08:17:29;;;;;;;83.38;11.85;;;-1.80;99.90;;;;;;4950506;29;20070;-75
2022/01/11 08:19:55;;;;;;;30.08;9.18;;;-1.90;99.90;;;;;;4949206;29;20047;-74
2022/01/11 08:22:21;;;;;;;51.88;9.70;;;-0.90;99.90;;;;;;4959980;28;20159;-75
2022/01/11 08:24:47;;;;;;;51.40;8.45;;;-1.60;99.90;;;;;;4971822;28;20027;-75
2022/01/11 08:27:13;;;;;;;47.35;8.30;;;-1.60;99.90;;;;;;4967231;28;20027;-75
2022/01/11 08:29:39;;;;;;;46.05;9.93;;;-1.60;99.90;;;;;;4943662;29;20027;-74
2022/01/11 08:32:07;;;;;;;37.17;10.13;;;-0.80;99.90;;;;;;4943779;29;20055;-72
2022/01/11 08:34:32;;;;;;;80.88;8.88;;;-1.50;99.90;;;;;;4960499;29;20335;-74
2022/01/11 08:36:59;;;;;;;39.50;8.00;;;-1.30;99.90;;;;;;4943327;29;20028;-72
2022/01/11 08:39:25;;;;;;;51.20;7.30;;;-1.20;99.90;;;;;;4943332;29;20335;-74
2022/01/11 08:41:51;;;;;;;77.75;9.73;;;-1.50;99.90;;;;;;4961066;29;20031;-74
2022/01/11 08:44:20;;;;;;;44.42;10.20;;;-0.10;99.90;;;;;;4959654;29;20051;-75
2022/01/11 08:46:46;;;;;;;70.63;12.07;;;-1.30;99.90;;;;;;4960756;29;20023;-73
2022/01/11 08:49:13;;;;;;;82.47;10.02;;;-1.70;99.90;;;;;;4961126;29;20396;-75
2022/01/11 08:51:39;;;;;;;64.68;9.18;;;-1.20;99.90;;;;;;4943843;29;20070;-73
2022/01/11 08:54:07;;;;;;;45.33;8.90;;;-1.00;99.90;;;;;;4943778;29;20027;-74
2022/01/11 08:56:33;;;;;;;65.93;8.95;;;-1.40;99.90;;;;;;4960551;29;20103;-74
2022/01/11 08:58:59;;;;;;;48.78;10.05;;;-0.90;99.90;;;;;;4960142;29;20031;-75
2022/01/11 09:01:27;;;;;;;84.07;13.57;;;-1.20;99.90;;;;;;4960185;29;20027;-74
2022/01/11 09:03:53;;;;;;;65.13;12.77;;;-1.40;99.90;;;;;;4959498;29;20753;-74
2022/01/11 09:06:19;;;;;;;59.97;9.07;;;-1.50;99.90;;;;;;4942698;29;20035;-75
2022/01/11 09:08:45;;;;;;;66.47;12.65;;;-1.50;99.90;;;;;;4942501;29;20094;-74
2022/01/11 09:11:11;;;;;;;54.45;11.73;;;-1.50;99.90;;;;;;4957075;29;20035;-74
2022/01/11 09:13:37;;;;;;;38.45;9.07;;;-1.50;99.90;;;;;;4960522;29;20480;-74
2022/01/11 09:16:04;;;;;;;56.22;10.10;;;-1.30;99.90;;;;;;4959720;29;20406;-74
2022/01/11 09:18:30;;;;;;;43.03;10.13;;;-1.30;99.90;;;;;;4960008;28;20370;-75
2022/01/11 09:21:00;;;;;;;38.40;9.48;;;-1.30;99.90;;;;;;4959818;28;20050;-74
2022/01/11 09:23:26;;;;;;;44.15;8.73;;;-1.20;99.90;;;;;;4958482;29;20054;-75
2022/01/11 09:25:53;;;;;;;53.78;12.13;;;-1.20;99.90;;;;;;4959879;28;20058;-74
2022/01/11 09:28:20;;;;;;;39.35;10.23;;;-1.00;99.90;;;;;;4959994;29;20023;-74
2022/01/11 09:30:46;;;;;;;44.92;8.43;;;-1.20;99.90;;;;;;4959281;28;20027;-74
2022/01/11 09:33:12;;;;;;;49.25;11.10;;;-0.80;99.90;;;;;;4958921;28;20354;-75
2022/01/11 09:35:38;;;;;;;53.15;10.27;;;-1.30;99.90;;;;;;4959053;28;20046;-75
2022/01/11 09:38:03;;;;;;;54.10;11.70;;;-1.10;99.90;;;;;;4959515;29;20110;-75
2022/01/11 09:40:29;;;;;;;58.28;12.18;;;-1.30;99.90;;;;;;4959790;29;20054;-74
2022/01/11 09:42:55;;;;;;;53.75;14.15;;;-1.20;99.90;;;;;;4959334;29;20382;-73
2022/01/11 09:45:21;;;;;;;52.45;11.77;;;-0.20;99.90;;;;;;4959630;29;20342;-75
2022/01/11 09:47:47;;;;;;;36.85;9.63;;;-1.00;99.90;;;;;;4959894;28;20031;-74
2022/01/11 09:50:15;;;;;;;38.33;9.95;;;-1.00;99.90;;;;;;4959718;28;20030;-74
2022/01/11 09:52:41;;;;;;;44.30;10.52;;;-1.00;99.90;;;;;;4959695;28;20028;-75
2022/01/11 09:55:09;;;;;;;32.00;7.82;;;-1.10;99.90;;;;;;4960231;28;20142;-74
2022/01/11 09:57:35;;;;;;;23.85;6.72;;;-1.00;99.90;;;;;;4965391;28;20078;-76
2022/01/11 10:00:03;;;;;;;29.02;8.75;;;-1.00;99.90;;;;;;4978867;28;20054;-75
2022/01/11 10:02:28;;;;;;;31.38;7.93;;;-1.00;99.90;;;;;;4958329;29;20323;-75
2022/01/11 10:05:01;;;;;;;16.13;6.78;;;-0.60;99.90;;;;;;4960576;29;20039;-75
2022/01/11 10:07:35;;;;;;;19.00;6.65;;;-0.90;99.90;;;;;;4960855;28;20082;-75
2022/01/11 10:10:00;;;;;;;36.15;11.85;;;-1.00;99.90;;;;;;4960472;28;20039;-74
2022/01/11 10:12:29;;;;;;;38.88;9.35;;;-0.90;99.90;;;;;;4973736;28;20391;-75
2022/01/11 10:14:57;;;;;;;38.47;9.10;;;-0.90;99.90;;;;;;4958906;28;20015;-75
2022/01/11 10:17:27;;;;;;;34.08;10.52;;;-0.70;99.90;;;;;;4959992;29;20039;-75
2022/01/11 10:20:04;;;;;;;;;;;-0.80;99.90;;;;;;4960543;29;20054;-75
2022/01/11 10:22:31;;;;;;;66.47;8.77;;;-1.20;99.90;;;;;;4958367;28;19957;-73
2022/01/11 10:24:59;;;;;;;60.20;11.13;;;-1.20;99.90;;;;;;4957315;29;20034;-75
2022/01/11 10:27:30;;;;;;;34.83;10.65;;;-0.90;99.90;;;;;;4958819;28;20027;-75
2022/01/11 10:30:03;;;;;;;43.33;10.05;;;-0.70;99.90;;;;;;4958724;29;20110;-75
2022/01/11 10:32:34;;;;;;;35.28;7.25;;;-0.90;99.90;;;;;;4958462;28;20066;-78
2022/01/11 10:35:26;;;;;;;29.33;7.07;;;-0.90;99.90;;;;;;4959688;28;20192;-78
2022/01/11 10:37:59;;;;;;;25.65;8.23;;;-1.20;99.90;;;;;;4962027;28;20227;-75
2022/01/11 10:40:32;;;;;;;55.70;8.73;;;-1.10;99.90;;;;;;4958916;28;20074;-75
2022/01/11 10:43:07;;;;;;;36.35;9.80;;;-1.00;99.90;;;;;;4957947;29;20334;-76
2022/01/11 10:45:37;;;;;;;56.50;11.35;;;-1.00;99.90;;;;;;4957959;29;20031;-76
2022/01/11 10:48:07;;;;;;;43.10;11.18;;;-0.60;99.90;;;;;;4958951;29;20071;-74
2022/01/11 10:50:36;;;;;;;43.17;8.75;;;-1.20;99.90;;;;;;4958887;28;20370;-75
2022/01/11 10:53:05;;;;;;;35.70;9.50;;;-1.30;99.90;;;;;;4957949;28;20235;-75
2022/01/11 10:55:33;;;;;;;37.42;7.82;;;-1.20;99.90;;;;;;4941403;29;20027;-75
2022/01/11 10:58:11;;;;;;;64.22;13.05;;;-1.20;99.90;;;;;;4941246;29;20244;-75
2022/01/11 11:00:49;;;;;;;44.28;11.32;;;-1.40;99.90;;;;;;4959055;28;20275;-76
2022/01/11 11:03:17;;;;;;;54.58;11.40;;;-1.30;99.90;;;;;;4962429;29;20028;-76
2022/01/11 11:05:47;;;;;;;34.90;10.07;;;0.50;99.90;;;;;;4962774;29;20066;-75
2022/01/11 11:08:21;;;;;;;19.45;7.30;;;-0.90;99.90;;;;;;4962359;29;20019;-76
2022/01/11 11:10:57;;;;;;;43.05;11.88;;;0.70;99.90;;;;;;4962206;29;20055;-75
2022/01/11 11:13:32;;;;;;;36.05;10.48;;;-0.80;99.90;;;;;;4962842;29;20042;-75
2022/01/11 11:16:07;;;;;;;35.33;8.68;;;-0.80;99.90;;;;;;4962909;29;20107;-75
2022/01/11 11:18:38;;;;;;;23.75;8.13;;;-0.70;99.90;;;;;;4966936;28;20035;-74
2022/01/11 11:21:21;;;;;;;38.85;10.07;;;1.00;99.90;;;;;;4971258;28;20027;-76
2022/01/11 11:23:49;;;;;;;36.97;8.70;;;-0.70;99.90;;;;;;4966608;28;20039;-75
2022/01/11 11:26:16;;;;;;;37.55;10.90;;;-0.60;99.90;;;;;;4968414;28;20027;-76
2022/01/11 11:28:41;;;;;;;47.65;9.88;;;-0.30;99.90;;;;;;4977778;28;20042;-76
2022/01/11 11:31:07;;;;;;;34.83;9.27;;;1.20;99.90;;;;;;4963817;28;20061;-74
2022/01/11 11:33:37;;;;;;;38.00;9.00;;;-0.80;99.90;;;;;;4961785;29;20035;-74
2022/01/11 11:36:04;;;;;;;35.53;10.52;;;-0.80;99.90;;;;;;4961998;29;20015;-74
2022/01/11 11:38:32;;;;;;;36.58;8.88;;;-0.80;99.90;;;;;;4962553;29;20074;-76
2022/01/11 11:41:00;;;;;;;44.90;13.77;;;0.70;99.90;;;;;;4961735;29;20015;-76
2022/01/11 11:43:26;;;;;;;18.98;7.07;;;-0.20;99.90;;;;;;4961431;29;20023;-76
2022/01/11 11:45:52;;;;;;;33.30;11.50;;;0.60;99.90;;;;;;4962270;29;20038;-76
2022/01/11 11:48:23;;;;;;;44.70;8.77;;;-0.40;99.90;;;;;;4962512;29;20031;-74
2022/01/11 11:51:12;;;;;;;34.40;10.10;;;-0.40;99.90;;;;;;4960967;29;20087;-76
2022/01/11 11:53:40;;;;;;;30.92;8.95;;;-0.50;99.90;;;;;;4943096;29;20034;-76
2022/01/11 11:56:18;;;;;;;29.60;10.00;;;-0.60;99.90;;;;;;4961818;29;20031;-75
2022/01/11 11:58:50;;;;;;;29.98;9.18;;;-0.70;99.90;;;;;;4961138;29;20019;-76
2022/01/11 12:01:29;;;;;;;36.95;9.90;;;-0.60;99.90;;;;;;4961393;29;20066;-75
2022/01/11 12:03:55;;;;;;;26.95;7.82;;;-0.80;99.90;;;;;;4961294;29;20035;-75
2022/01/11 12:06:28;;;;;;;36.75;8.57;;;-0.70;99.90;;;;;;4959716;29;20041;-76
2022/01/11 12:09:05;;;;;;;30.73;9.45;;;-0.60;99.90;;;;;;4959787;29;20123;-75
2022/01/11 12:11:48;;;;;;;31.65;7.55;;;-0.60;99.90;;;;;;4959777;28;20044;-75
2022/01/11 12:14:33;;;;;;;38.60;10.25;;;-0.60;99.90;;;;;;4960549;29;20019;-75
2022/01/11 12:17:22;;;;;;;43.45;8.82;;;0.70;99.90;;;;;;4959362;29;20152;-75
2022/01/11 12:19:53;;;;;;;32.92;10.85;;;0.60;99.90;;;;;;4959410;29;20058;-75
2022/01/11 12:22:25;;;;;;;24.88;8.07;;;0.70;99.90;;;;;;4960212;29;20498;-76
2022/01/11 12:24:52;;;;;;;40.53;13.73;;;1.30;99.90;;;;;;4959246;29;20053;-76
2022/01/11 12:27:21;;;;;;;32.92;9.75;;;-0.70;99.90;;;;;;4942499;29;20043;-76
2022/01/11 12:30:16;;;;;;;38.63;9.75;;;-0.70;99.90;;;;;;4960056;29;20027;-75
2022/01/11 12:33:09;;;;;;;25.70;8.95;;;-0.60;99.90;;;;;;4942897;29;20086;-76
2022/01/11 12:35:53;;;;;;;38.88;10.88;;;-0.60;99.90;;;;;;4959874;29;20024;-75
2022/01/11 12:38:20;;;;;;;48.55;12.13;;;-0.40;99.90;;;;;;4960545;29;20039;-76
2022/01/11 12:40:47;;;;;;;45.05;12.32;;;-0.30;99.90;;;;;;4961217;29;20023;-75